sensor_id;sensor_type;location;lat;lon;timestamp;pressure;altitude;pressure_sealevel;temperature;humidity
71465;BME280;59274;49.874;9.154;2023-01-09T00:00:15;98590.16;;;7.66;100.00
71465;BME280;59274;49.874;9.154;2023-01-09T00:02:41;98591.31;;;7.65;100.00
71465;BME280;59274;49.874;9.154;2023-01-09T00:05:13;98593.66;;;7.56;100.00
71465;BME280;59274;49.874;9.154;2023-01-09T00:07:39;98577.44;;;7.59;100.00
71465;BME280;59274;49.874;9.154;2023-01-09T00:10:06;98577.41;;;7.63;100.00
71465;BME280;59274;49.874;9.154;2023-01-09T00:12:32;98576.69;;;7.52;100.00
71465;BME280;59274;49.874;9.154;2023-01-09T00:14:57;98577.06;;;7.54;100.00
71465;BME280;59274;49.874;9.154;2023-01-09T00:17:23;98571.69;;;7.46;100.00
71465;BME280;59274;49.874;9.154;2023-01-09T00:19:48;98562.06;;;7.42;100.00
71465;BME280;59274;49.874;9.154;2023-01-09T00:22:14;98558.97;;;7.40;100.00
71465;BME280;59274;49.874;9.154;2023-01-09T00:24:39;98551.66;;;7.44;100.00
71465;BME280;59274;49.874;9.154;2023-01-09T00:27:05;98553.97;;;7.45;100.00
71465;BME280;59274;49.874;9.154;2023-01-09T00:29:30;98550.47;;;7.48;100.00
71465;BME280;59274;49.874;9.154;2023-01-09T00:31:56;98543.13;;;7.53;100.00
71465;BME280;59274;49.874;9.154;2023-01-09T00:34:22;98546.94;;;7.55;100.00
71465;BME280;59274;49.874;9.154;2023-01-09T00:36:48;98545.41;;;7.58;100.00
71465;BME280;59274;49.874;9.154;2023-01-09T00:39:19;98536.53;;;7.54;100.00
71465;BME280;59274;49.874;9.154;2023-01-09T00:41:47;98536.19;;;7.52;100.00
71465;BME280;59274;49.874;9.154;2023-01-09T00:44:46;98542.75;;;7.51;100.00
71465;BME280;59274;49.874;9.154;2023-01-09T00:47:18;98555.09;;;7.48;100.00
71465;BME280;59274;49.874;9.154;2023-01-09T00:49:46;98550.09;;;7.43;100.00
71465;BME280;59274;49.874;9.154;2023-01-09T00:52:13;98547.78;;;7.45;100.00
71465;BME280;59274;49.874;9.154;2023-01-09T00:54:39;98542.75;;;7.47;100.00
71465;BME280;59274;49.874;9.154;2023-01-09T00:57:05;98550.06;;;7.50;100.00
71465;BME280;59274;49.874;9.154;2023-01-09T00:59:31;98540.06;;;7.43;100.00
71465;BME280;59274;49.874;9.154;2023-01-09T01:02:00;98534.63;;;7.51;100.00
71465;BME280;59274;49.874;9.154;2023-01-09T01:04:25;98531.19;;;7.43;100.00
71465;BME280;59274;49.874;9.154;2023-01-09T01:07:09;98533.88;;;7.46;100.00
71465;BME280;59274;49.874;9.154;2023-01-09T01:09:52;98526.19;;;7.41;100.00
71465;BME280;59274;49.874;9.154;2023-01-09T01:12:18;98517.69;;;7.43;100.00
71465;BME280;59274;49.874;9.154;2023-01-09T01:14:43;98519.25;;;7.40;100.00
71465;BME280;59274;49.874;9.154;2023-01-09T01:17:09;98518.47;;;7.40;100.00
71465;BME280;59274;49.874;9.154;2023-01-09T01:19:34;98513.84;;;7.40;100.00
71465;BME280;59274;49.874;9.154;2023-01-09T01:22:00;98511.88;;;7.48;100.00
71465;BME280;59274;49.874;9.154;2023-01-09T01:24:25;98513.03;;;7.51;100.00
71465;BME280;59274;49.874;9.154;2023-01-09T01:26:51;98514.94;;;7.54;100.00
71465;BME280;59274;49.874;9.154;2023-01-09T01:29:16;98510.72;;;7.53;100.00
71465;BME280;59274;49.874;9.154;2023-01-09T01:31:42;98504.13;;;7.54;100.00
71465;BME280;59274;49.874;9.154;2023-01-09T01:34:07;98506.06;;;7.57;100.00
71465;BME280;59274;49.874;9.154;2023-01-09T01:36:33;98510.69;;;7.56;100.00
71465;BME280;59274;49.874;9.154;2023-01-09T01:38:59;98517.66;;;7.46;100.00
71465;BME280;59274;49.874;9.154;2023-01-09T01:41:24;98512.25;;;7.50;100.00
71465;BME280;59274;49.874;9.154;2023-01-09T01:44:01;98514.19;;;7.50;100.00
71465;BME280;59274;49.874;9.154;2023-01-09T01:46:28;98510.75;;;7.45;100.00
71465;BME280;59274;49.874;9.154;2023-01-09T01:49:06;98510.72;;;7.49;100.00
71465;BME280;59274;49.874;9.154;2023-01-09T01:51:38;98510.72;;;7.49;100.00
71465;BME280;59274;49.874;9.154;2023-01-09T01:54:07;98521.56;;;7.45;100.00
71465;BME280;59274;49.874;9.154;2023-01-09T01:56:39;98513.38;;;7.56;100.00
71465;BME280;59274;49.874;9.154;2023-01-09T01:59:16;98509.16;;;7.52;100.00
71465;BME280;59274;49.874;9.154;2023-01-09T02:01:47;98504.53;;;7.48;100.00
71465;BME280;59274;49.874;9.154;2023-01-09T02:04:16;98507.59;;;7.58;100.00
71465;BME280;59274;49.874;9.154;2023-01-09T02:06:43;98512.97;;;7.61;100.00
71465;BME280;59274;49.874;9.154;2023-01-09T02:09:10;98511.44;;;7.57;100.00
71465;BME280;59274;49.874;9.154;2023-01-09T02:11:49;98506.84;;;7.50;100.00
71465;BME280;59274;49.874;9.154;2023-01-09T02:14:19;98500.72;;;7.42;100.00
71465;BME280;59274;49.874;9.154;2023-01-09T02:17:00;98509.91;;;7.56;100.00
71465;BME280;59274;49.874;9.154;2023-01-09T02:27:52;98512.91;;;7.72;100.00
71465;BME280;59274;49.874;9.154;2023-01-09T02:30:30;98514.09;;;7.67;100.00
71465;BME280;59274;49.874;9.154;2023-01-09T02:33:12;98516.00;;;7.74;100.00
71465;BME280;59274;49.874;9.154;2023-01-09T02:41:07;98509.88;;;7.63;100.00
71465;BME280;59274;49.874;9.154;2023-01-09T02:43:38;98510.59;;;7.70;100.00
71465;BME280;59274;49.874;9.154;2023-01-09T02:46:04;98502.06;;;7.79;100.00
71465;BME280;59274;49.874;9.154;2023-01-09T02:48:30;98495.13;;;7.74;100.00
71465;BME280;59274;49.874;9.154;2023-01-09T02:51:08;98504.00;;;7.75;100.00
71465;BME280;59274;49.874;9.154;2023-01-09T02:53:58;98508.59;;;7.85;100.00
71465;BME280;59274;49.874;9.154;2023-01-09T02:56:57;98514.00;;;7.85;100.00
71465;BME280;59274;49.874;9.154;2023-01-09T02:59:37;98515.97;;;7.81;100.00
71465;BME280;59274;49.874;9.154;2023-01-09T03:02:28;98523.66;;;7.82;100.00
71465;BME280;59274;49.874;9.154;2023-01-09T03:10:35;98521.56;;;8.04;100.00
71465;BME280;59274;49.874;9.154;2023-01-09T03:13:00;98524.72;;;7.99;100.00
71465;BME280;59274;49.874;9.154;2023-01-09T03:15:31;98537.44;;;7.99;100.00
71465;BME280;59274;49.874;9.154;2023-01-09T03:17:59;98528.19;;;8.00;100.00
71465;BME280;59274;49.874;9.154;2023-01-09T03:20:25;98559.03;;;8.06;100.00
71465;BME280;59274;49.874;9.154;2023-01-09T03:22:55;98563.66;;;8.05;100.00
71465;BME280;59274;49.874;9.154;2023-01-09T03:25:21;98557.16;;;7.99;100.00
71465;BME280;59274;49.874;9.154;2023-01-09T03:27:56;98544.72;;;8.09;100.00
71465;BME280;59274;49.874;9.154;2023-01-09T03:30:21;98549.78;;;8.03;100.00
71465;BME280;59274;49.874;9.154;2023-01-09T03:32:47;98558.66;;;8.04;100.00
71465;BME280;59274;49.874;9.154;2023-01-09T03:35:13;98558.25;;;8.05;100.00
71465;BME280;59274;49.874;9.154;2023-01-09T03:37:38;98562.50;;;8.06;100.00
71465;BME280;59274;49.874;9.154;2023-01-09T03:40:04;98557.50;;;8.05;100.00
71465;BME280;59274;49.874;9.154;2023-01-09T03:42:30;98574.09;;;8.07;100.00
71465;BME280;59274;49.874;9.154;2023-01-09T03:44:55;98578.00;;;8.02;100.00
71465;BME280;59274;49.874;9.154;2023-01-09T03:47:22;98571.41;;;8.03;100.00
71465;BME280;59274;49.874;9.154;2023-01-09T03:49:48;98575.97;;;8.13;100.00
71465;BME280;59274;49.874;9.154;2023-01-09T03:52:13;98579.47;;;8.10;100.00
71465;BME280;59274;49.874;9.154;2023-01-09T03:54:39;98574.06;;;8.10;100.00
71465;BME280;59274;49.874;9.154;2023-01-09T03:57:04;98570.91;;;8.19;100.00
71465;BME280;59274;49.874;9.154;2023-01-09T03:59:30;98578.25;;;8.22;100.00
71465;BME280;59274;49.874;9.154;2023-01-09T04:01:55;98595.63;;;8.21;100.00
71465;BME280;59274;49.874;9.154;2023-01-09T04:04:20;98583.34;;;8.09;100.00
71465;BME280;59274;49.874;9.154;2023-01-09T04:06:46;98583.03;;;7.97;100.00
71465;BME280;59274;49.874;9.154;2023-01-09T04:09:11;98595.06;;;7.89;100.00
71465;BME280;59274;49.874;9.154;2023-01-09T04:11:37;98594.28;;;7.88;100.00
71465;BME280;59274;49.874;9.154;2023-01-09T04:14:02;98587.72;;;7.82;100.00
71465;BME280;59274;49.874;9.154;2023-01-09T04:16:27;98602.03;;;7.79;100.00
71465;BME280;59274;49.874;9.154;2023-01-09T04:18:53;98609.78;;;7.77;100.00
71465;BME280;59274;49.874;9.154;2023-01-09T04:21:19;98629.47;;;7.74;100.00
71465;BME280;59274;49.874;9.154;2023-01-09T04:23:44;98638.34;;;7.74;100.00
71465;BME280;59274;49.874;9.154;2023-01-09T04:26:09;98651.88;;;7.71;100.00
71465;BME280;59274;49.874;9.154;2023-01-09T04:28:35;98656.13;;;7.72;100.00
71465;BME280;59274;49.874;9.154;2023-01-09T04:31:00;98651.09;;;7.74;100.00
71465;BME280;59274;49.874;9.154;2023-01-09T04:33:27;98670.03;;;7.74;100.00
71465;BME280;59274;49.874;9.154;2023-01-09T04:35:53;98675.00;;;7.75;100.00
71465;BME280;59274;49.874;9.154;2023-01-09T04:38:18;98677.31;;;7.77;100.00
71465;BME280;59274;49.874;9.154;2023-01-09T04:40:46;98684.31;;;7.71;100.00
71465;BME280;59274;49.874;9.154;2023-01-09T04:43:12;98701.28;;;7.71;100.00
71465;BME280;59274;49.874;9.154;2023-01-09T04:45:38;98694.72;;;7.69;100.00
71465;BME280;59274;49.874;9.154;2023-01-09T04:48:03;98710.56;;;7.56;100.00
71465;BME280;59274;49.874;9.154;2023-01-09T04:50:29;98715.59;;;7.47;100.00
71465;BME280;59274;49.874;9.154;2023-01-09T04:52:54;98723.72;;;7.43;100.00
71465;BME280;59274;49.874;9.154;2023-01-09T04:55:21;98724.09;;;7.42;100.00
71465;BME280;59274;49.874;9.154;2023-01-09T04:57:47;98730.66;;;7.41;100.00
71465;BME280;59274;49.874;9.154;2023-01-09T05:00:12;98731.06;;;7.43;100.00
71465;BME280;59274;49.874;9.154;2023-01-09T05:02:39;98743.03;;;7.45;100.00
71465;BME280;59274;49.874;9.154;2023-01-09T05:05:06;98739.91;;;7.40;100.00
71465;BME280;59274;49.874;9.154;2023-01-09T05:07:32;98755.34;;;7.39;100.00
71465;BME280;59274;49.874;9.154;2023-01-09T05:09:58;98756.13;;;7.26;100.00
71465;BME280;59274;49.874;9.154;2023-01-09T05:12:24;98769.25;;;7.13;100.00
71465;BME280;59274;49.874;9.154;2023-01-09T05:14:49;98768.09;;;7.07;100.00
71465;BME280;59274;49.874;9.154;2023-01-09T05:17:15;98783.53;;;7.03;100.00
71465;BME280;59274;49.874;9.154;2023-01-09T05:19:40;98789.66;;;6.93;100.00
71465;BME280;59274;49.874;9.154;2023-01-09T05:22:06;98792.34;;;6.89;100.00
71465;BME280;59274;49.874;9.154;2023-01-09T05:24:32;98791.56;;;6.78;100.00
71465;BME280;59274;49.874;9.154;2023-01-09T05:26:57;98805.81;;;6.72;100.00
71465;BME280;59274;49.874;9.154;2023-01-09T05:29:23;98809.25;;;6.68;100.00
71465;BME280;59274;49.874;9.154;2023-01-09T05:31:48;98816.16;;;6.62;100.00
71465;BME280;59274;49.874;9.154;2023-01-09T05:34:14;98830.78;;;6.54;100.00
71465;BME280;59274;49.874;9.154;2023-01-09T05:36:39;98833.84;;;6.49;100.00
71465;BME280;59274;49.874;9.154;2023-01-09T05:39:05;98836.91;;;6.44;100.00
71465;BME280;59274;49.874;9.154;2023-01-09T05:41:31;98838.03;;;6.40;100.00
71465;BME280;59274;49.874;9.154;2023-01-09T05:43:56;98826.88;;;6.38;100.00
71465;BME280;59274;49.874;9.154;2023-01-09T05:46:22;98831.84;;;6.32;100.00
71465;BME280;59274;49.874;9.154;2023-01-09T05:48:47;98839.50;;;6.26;100.00
71465;BME280;59274;49.874;9.154;2023-01-09T05:51:13;98836.44;;;6.28;100.00
71465;BME280;59274;49.874;9.154;2023-01-09T05:53:38;98842.94;;;6.20;100.00
71465;BME280;59274;49.874;9.154;2023-01-09T05:56:04;98841.78;;;6.17;100.00
71465;BME280;59274;49.874;9.154;2023-01-09T05:58:29;98836.00;;;6.19;100.00
71465;BME280;59274;49.874;9.154;2023-01-09T06:00:55;98842.53;;;6.14;100.00
71465;BME280;59274;49.874;9.154;2023-01-09T06:03:22;98852.84;;;6.05;100.00
71465;BME280;59274;49.874;9.154;2023-01-09T06:05:47;98852.84;;;6.05;100.00
71465;BME280;59274;49.874;9.154;2023-01-09T06:08:12;98865.13;;;5.96;100.00
71465;BME280;59274;49.874;9.154;2023-01-09T06:10:38;98855.47;;;5.91;100.00
71465;BME280;59274;49.874;9.154;2023-01-09T06:13:03;98857.72;;;5.85;100.00
71465;BME280;59274;49.874;9.154;2023-01-09T06:15:29;98866.25;;;5.91;100.00
71465;BME280;59274;49.874;9.154;2023-01-09T06:17:54;98870.91;;;5.94;100.00
71465;BME280;59274;49.874;9.154;2023-01-09T06:20:19;98880.16;;;5.97;100.00
71465;BME280;59274;49.874;9.154;2023-01-09T06:22:45;98873.59;;;5.98;100.00
71465;BME280;59274;49.874;9.154;2023-01-09T06:25:11;98877.88;;;6.02;100.00
71465;BME280;59274;49.874;9.154;2023-01-09T06:27:37;98881.34;;;6.03;100.00
71465;BME280;59274;49.874;9.154;2023-01-09T06:30:02;98878.31;;;6.11;100.00
71465;BME280;59274;49.874;9.154;2023-01-09T06:32:28;98885.53;;;5.97;100.00
71465;BME280;59274;49.874;9.154;2023-01-09T06:34:53;98886.69;;;5.96;100.00
71465;BME280;59274;49.874;9.154;2023-01-09T06:37:19;98882.81;;;5.89;100.00
71465;BME280;59274;49.874;9.154;2023-01-09T06:39:44;98886.91;;;5.80;100.00
71465;BME280;59274;49.874;9.154;2023-01-09T06:42:10;98894.94;;;5.73;100.00
71465;BME280;59274;49.874;9.154;2023-01-09T06:44:35;98900.28;;;5.69;100.00
71465;BME280;59274;49.874;9.154;2023-01-09T06:47:02;98909.47;;;5.61;100.00
71465;BME280;59274;49.874;9.154;2023-01-09T06:49:27;98912.09;;;5.54;100.00
71465;BME280;59274;49.874;9.154;2023-01-09T06:51:52;98926.25;;;5.47;100.00
71465;BME280;59274;49.874;9.154;2023-01-09T06:54:19;98932.03;;;5.49;100.00
71465;BME280;59274;49.874;9.154;2023-01-09T06:56:45;98938.53;;;5.45;100.00
71465;BME280;59274;49.874;9.154;2023-01-09T06:59:10;98937.88;;;5.55;100.00
71465;BME280;59274;49.874;9.154;2023-01-09T07:01:36;98948.81;;;5.73;100.00
71465;BME280;59274;49.874;9.154;2023-01-09T07:04:04;98954.97;;;5.73;100.00
71465;BME280;59274;49.874;9.154;2023-01-09T07:06:30;98954.41;;;5.94;100.00
71465;BME280;59274;49.874;9.154;2023-01-09T07:08:55;98958.69;;;5.99;100.00
71465;BME280;59274;49.874;9.154;2023-01-09T07:11:20;98965.59;;;5.96;100.00
71465;BME280;59274;49.874;9.154;2023-01-09T07:13:46;98962.88;;;5.93;100.00
71465;BME280;59274;49.874;9.154;2023-01-09T07:16:11;98960.66;;;6.02;100.00
71465;BME280;59274;49.874;9.154;2023-01-09T07:18:37;98953.28;;;5.99;100.00
71465;BME280;59274;49.874;9.154;2023-01-09T07:21:05;98956.75;;;5.96;100.00
71465;BME280;59274;49.874;9.154;2023-01-09T07:23:31;98951.38;;;5.99;100.00
71465;BME280;59274;49.874;9.154;2023-01-09T07:25:56;98961.00;;;5.97;100.00
71465;BME280;59274;49.874;9.154;2023-01-09T07:28:22;98961.44;;;6.06;100.00
71465;BME280;59274;49.874;9.154;2023-01-09T07:30:48;98974.91;;;6.06;100.00
71465;BME280;59274;49.874;9.154;2023-01-09T07:33:13;98970.34;;;6.10;100.00
71465;BME280;59274;49.874;9.154;2023-01-09T07:35:39;98970.41;;;6.17;100.00
71465;BME280;59274;49.874;9.154;2023-01-09T07:38:04;98968.47;;;6.21;100.00
71465;BME280;59274;49.874;9.154;2023-01-09T07:40:29;98973.94;;;6.28;100.00
71465;BME280;59274;49.874;9.154;2023-01-09T07:42:55;98975.84;;;6.24;100.00
71465;BME280;59274;49.874;9.154;2023-01-09T07:45:20;98979.38;;;6.32;100.00
71465;BME280;59274;49.874;9.154;2023-01-09T07:47:45;98983.19;;;6.31;100.00
71465;BME280;59274;49.874;9.154;2023-01-09T07:50:11;98994.38;;;6.33;100.00
71465;BME280;59274;49.874;9.154;2023-01-09T07:52:37;98990.88;;;6.25;100.00
71465;BME280;59274;49.874;9.154;2023-01-09T07:55:03;99003.63;;;6.32;100.00
71465;BME280;59274;49.874;9.154;2023-01-09T07:57:28;99003.59;;;6.28;100.00
71465;BME280;59274;49.874;9.154;2023-01-09T07:59:54;99001.31;;;6.30;100.00
71465;BME280;59274;49.874;9.154;2023-01-09T08:02:20;98995.56;;;6.35;100.00
71465;BME280;59274;49.874;9.154;2023-01-09T08:04:45;99005.97;;;6.37;100.00
71465;BME280;59274;49.874;9.154;2023-01-09T08:07:11;99016.72;;;6.33;100.00
71465;BME280;59274;49.874;9.154;2023-01-09T08:09:39;99018.25;;;6.34;100.00
71465;BME280;59274;49.874;9.154;2023-01-09T08:12:05;99002.50;;;6.36;100.00
71465;BME280;59274;49.874;9.154;2023-01-09T08:14:30;99010.53;;;6.29;100.00
71465;BME280;59274;49.874;9.154;2023-01-09T08:16:56;99002.03;;;6.27;100.00
71465;BME280;59274;49.874;9.154;2023-01-09T08:19:21;99011.66;;;6.24;100.00
71465;BME280;59274;49.874;9.154;2023-01-09T08:21:48;99013.28;;;6.40;100.00
71465;BME280;59274;49.874;9.154;2023-01-09T08:24:13;99013.69;;;6.42;100.00
71465;BME280;59274;49.874;9.154;2023-01-09T08:26:39;99021.06;;;6.45;100.00
71465;BME280;59274;49.874;9.154;2023-01-09T08:29:04;99016.09;;;6.54;100.00
71465;BME280;59274;49.874;9.154;2023-01-09T08:31:30;99018.47;;;6.59;100.00
71465;BME280;59274;49.874;9.154;2023-01-09T08:33:56;99013.50;;;6.68;100.00
71465;BME280;59274;49.874;9.154;2023-01-09T08:36:21;99021.53;;;6.61;100.00
71465;BME280;59274;49.874;9.154;2023-01-09T08:38:47;99026.97;;;6.64;100.00
71465;BME280;59274;49.874;9.154;2023-01-09T08:41:12;99027.72;;;6.61;100.00
71465;BME280;59274;49.874;9.154;2023-01-09T08:43:56;99026.59;;;6.66;100.00
71465;BME280;59274;49.874;9.154;2023-01-09T08:46:40;99020.47;;;6.76;100.00
71465;BME280;59274;49.874;9.154;2023-01-09T08:49:25;99015.91;;;6.84;99.42
71465;BME280;59274;49.874;9.154;2023-01-09T08:51:50;99015.97;;;6.94;100.00
71465;BME280;59274;49.874;9.154;2023-01-09T08:54:15;99014.47;;;7.04;100.00
71465;BME280;59274;49.874;9.154;2023-01-09T08:56:41;99016.81;;;7.09;100.00
71465;BME280;59274;49.874;9.154;2023-01-09T08:59:06;99017.97;;;7.08;99.61
71465;BME280;59274;49.874;9.154;2023-01-09T09:01:32;99014.47;;;7.00;100.00
71465;BME280;59274;49.874;9.154;2023-01-09T09:03:57;99018.69;;;6.98;100.00
71465;BME280;59274;49.874;9.154;2023-01-09T09:06:23;99007.06;;;6.90;100.00
71465;BME280;59274;49.874;9.154;2023-01-09T09:08:48;99008.59;;;6.84;100.00
71465;BME280;59274;49.874;9.154;2023-01-09T09:11:14;99018.59;;;6.80;100.00
71465;BME280;59274;49.874;9.154;2023-01-09T09:13:39;99024.41;;;6.86;100.00
71465;BME280;59274;49.874;9.154;2023-01-09T09:16:05;99015.59;;;6.96;100.00
71465;BME280;59274;49.874;9.154;2023-01-09T09:18:30;99020.22;;;6.95;100.00
71465;BME280;59274;49.874;9.154;2023-01-09T09:20:55;99023.31;;;6.94;100.00
71465;BME280;59274;49.874;9.154;2023-01-09T09:23:21;99035.63;;;6.91;100.00
71465;BME280;59274;49.874;9.154;2023-01-09T09:25:47;99027.13;;;6.89;100.00
71465;BME280;59274;49.874;9.154;2023-01-09T09:28:13;99036.44;;;6.95;100.00
71465;BME280;59274;49.874;9.154;2023-01-09T09:30:38;99033.78;;;7.06;100.00
71465;BME280;59274;49.874;9.154;2023-01-09T09:33:04;99031.88;;;7.14;100.00
71465;BME280;59274;49.874;9.154;2023-01-09T09:35:31;99029.94;;;7.11;100.00
71465;BME280;59274;49.874;9.154;2023-01-09T09:38:00;99037.69;;;7.16;100.00
71465;BME280;59274;49.874;9.154;2023-01-09T09:46:38;99031.09;;;7.10;100.00
71465;BME280;59274;49.874;9.154;2023-01-09T09:49:20;99025.66;;;7.02;100.00
71465;BME280;59274;49.874;9.154;2023-01-09T09:52:12;99047.34;;;7.17;100.00
71465;BME280;59274;49.874;9.154;2023-01-09T09:54:48;99050.44;;;7.22;100.00
71465;BME280;59274;49.874;9.154;2023-01-09T09:57:17;99037.31;;;7.17;100.00
71465;BME280;59274;49.874;9.154;2023-01-09T09:59:46;99050.44;;;7.26;98.79
71465;BME280;59274;49.874;9.154;2023-01-09T10:02:41;99041.19;;;7.27;99.17
71465;BME280;59274;49.874;9.154;2023-01-09T10:05:28;99043.94;;;7.34;98.06
71465;BME280;59274;49.874;9.154;2023-01-09T10:07:58;99040.09;;;7.38;98.38
71465;BME280;59274;49.874;9.154;2023-01-09T10:10:43;99030.84;;;7.43;98.16
71465;BME280;59274;49.874;9.154;2023-01-09T10:13:16;99035.09;;;7.47;99.42
71465;BME280;59274;49.874;9.154;2023-01-09T10:26:53;99046.19;;;7.25;96.90
71465;BME280;59274;49.874;9.154;2023-01-09T10:29:46;99045.09;;;7.36;95.75
71465;BME280;59274;49.874;9.154;2023-01-09T10:32:42;99046.28;;;7.46;94.73
71465;BME280;59274;49.874;9.154;2023-01-09T10:35:22;99048.28;;;7.60;96.22
71465;BME280;59274;49.874;9.154;2023-01-09T10:37:57;99055.66;;;7.66;95.01
71465;BME280;59274;49.874;9.154;2023-01-09T10:40:32;99061.03;;;7.70;93.55
71465;BME280;59274;49.874;9.154;2023-01-09T10:43:04;99056.81;;;7.76;93.50
71465;BME280;59274;49.874;9.154;2023-01-09T10:45:49;99057.25;;;7.81;93.77
71465;BME280;59274;49.874;9.154;2023-01-09T10:48:43;99058.38;;;7.84;94.65
71465;BME280;59274;49.874;9.154;2023-01-09T10:51:19;99053.38;;;7.86;92.96
71465;BME280;59274;49.874;9.154;2023-01-09T10:53:49;99044.47;;;7.82;93.06
71465;BME280;59274;49.874;9.154;2023-01-09T10:56:24;99057.19;;;7.74;93.20
71465;BME280;59274;49.874;9.154;2023-01-09T10:58:51;99047.94;;;7.82;94.70
71465;BME280;59274;49.874;9.154;2023-01-09T11:01:26;99052.19;;;7.83;92.91
71465;BME280;59274;49.874;9.154;2023-01-09T11:03:52;99056.88;;;7.94;93.96
71465;BME280;59274;49.874;9.154;2023-01-09T11:06:28;99064.19;;;7.93;93.65
71465;BME280;59274;49.874;9.154;2023-01-09T11:08:58;99056.84;;;7.86;92.73
71465;BME280;59274;49.874;9.154;2023-01-09T11:11:38;99061.09;;;7.91;94.83
71465;BME280;59274;49.874;9.154;2023-01-09T11:14:22;99061.09;;;7.80;94.06
71465;BME280;59274;49.874;9.154;2023-01-09T11:17:00;99064.91;;;7.69;96.57
71465;BME280;59274;49.874;9.154;2023-01-09T11:19:27;99037.81;;;7.47;98.00
71465;BME280;59274;49.874;9.154;2023-01-09T11:22:16;99051.69;;;7.46;98.64
71465;BME280;59274;49.874;9.154;2023-01-09T11:24:45;99048.22;;;7.38;98.32
71465;BME280;59274;49.874;9.154;2023-01-09T11:27:23;99045.50;;;7.42;98.76
71465;BME280;59274;49.874;9.154;2023-01-09T11:32:45;99049.63;;;7.18;98.28
71465;BME280;59274;49.874;9.154;2023-01-09T11:35:34;99056.25;;;7.24;98.41
71465;BME280;59274;49.874;9.154;2023-01-09T11:38:14;99054.81;;;7.55;97.65
71465;BME280;59274;49.874;9.154;2023-01-09T11:40:47;99053.28;;;7.58;97.20
71465;BME280;59274;49.874;9.154;2023-01-09T11:43:35;99053.34;;;7.72;98.30
71465;BME280;59274;49.874;9.154;2023-01-09T11:46:07;99063.75;;;7.70;95.55
71465;BME280;59274;49.874;9.154;2023-01-09T11:48:52;99060.28;;;7.76;97.81
71465;BME280;59274;49.874;9.154;2023-01-09T11:51:32;99046.84;;;7.94;96.45
71465;BME280;59274;49.874;9.154;2023-01-09T11:56:36;99054.94;;;7.98;95.36
71465;BME280;59274;49.874;9.154;2023-01-09T11:59:09;99060.75;;;8.14;94.75
71465;BME280;59274;49.874;9.154;2023-01-09T12:05:34;99066.59;;;8.55;92.28
71465;BME280;59274;49.874;9.154;2023-01-09T12:08:07;99053.44;;;8.75;91.09
71465;BME280;59274;49.874;9.154;2023-01-09T12:10:40;99065.84;;;8.47;91.09
71465;BME280;59274;49.874;9.154;2023-01-09T12:21:34;99060.75;;;8.17;92.09
71465;BME280;59274;49.874;9.154;2023-01-09T12:35:42;99040.25;;;7.99;94.06
71465;BME280;59274;49.874;9.154;2023-01-09T12:43:39;99063.44;;;7.93;94.52
71465;BME280;59274;49.874;9.154;2023-01-09T12:46:18;99058.44;;;8.12;94.83
71465;BME280;59274;49.874;9.154;2023-01-09T12:48:58;99061.94;;;8.23;92.91
71465;BME280;59274;49.874;9.154;2023-01-09T12:54:14;99065.78;;;8.08;91.56
71465;BME280;59274;49.874;9.154;2023-01-09T12:56:48;99069.59;;;7.93;93.62
71465;BME280;59274;49.874;9.154;2023-01-09T12:59:35;99065.34;;;7.92;92.57
71465;BME280;59274;49.874;9.154;2023-01-09T13:02:28;99064.19;;;7.93;94.72
71465;BME280;59274;49.874;9.154;2023-01-09T13:05:00;99057.25;;;7.92;94.87
71465;BME280;59274;49.874;9.154;2023-01-09T13:07:33;99057.59;;;7.83;95.44
71465;BME280;59274;49.874;9.154;2023-01-09T13:10:18;99052.97;;;7.80;97.87
71465;BME280;59274;49.874;9.154;2023-01-09T13:12:47;99054.88;;;7.66;96.80
71465;BME280;59274;49.874;9.154;2023-01-09T13:15:24;99062.97;;;7.66;98.41
71465;BME280;59274;49.874;9.154;2023-01-09T13:17:54;99076.47;;;7.59;100.00
71465;BME280;59274;49.874;9.154;2023-01-09T13:20:36;99067.97;;;7.64;100.00
71465;BME280;59274;49.874;9.154;2023-01-09T13:23:04;99076.84;;;7.57;100.00
71465;BME280;59274;49.874;9.154;2023-01-09T13:25:51;99069.50;;;7.61;100.00
71465;BME280;59274;49.874;9.154;2023-01-09T13:28:50;99068.38;;;7.66;100.00
71465;BME280;59274;49.874;9.154;2023-01-09T13:31:29;99074.13;;;7.61;100.00
71465;BME280;59274;49.874;9.154;2023-01-09T13:34:00;99066.41;;;7.56;100.00
71465;BME280;59274;49.874;9.154;2023-01-09T13:36:35;99070.31;;;7.65;100.00
71465;BME280;59274;49.874;9.154;2023-01-09T13:39:02;99070.31;;;7.76;100.00
71465;BME280;59274;49.874;9.154;2023-01-09T13:41:28;99065.28;;;7.74;99.40
71465;BME280;59274;49.874;9.154;2023-01-09T13:46:44;99080.75;;;7.74;98.76
71465;BME280;59274;49.874;9.154;2023-01-09T13:59:43;99092.34;;;7.78;98.93
71465;BME280;59274;49.874;9.154;2023-01-09T14:05:08;99092.41;;;7.96;96.51
71465;BME280;59274;49.874;9.154;2023-01-09T14:08:14;99093.16;;;7.85;95.13
71465;BME280;59274;49.874;9.154;2023-01-09T14:10:53;99098.50;;;7.71;97.06
71465;BME280;59274;49.874;9.154;2023-01-09T14:13:24;99098.88;;;7.66;97.64
71465;BME280;59274;49.874;9.154;2023-01-09T14:16:00;99109.66;;;7.63;97.86
71465;BME280;59274;49.874;9.154;2023-01-09T14:18:31;99104.97;;;7.49;97.52
71465;BME280;59274;49.874;9.154;2023-01-09T14:20:58;99121.91;;;7.46;98.29
71465;BME280;59274;49.874;9.154;2023-01-09T14:23:27;99119.94;;;7.36;97.87
71465;BME280;59274;49.874;9.154;2023-01-09T14:25:54;99128.03;;;7.32;97.20
71465;BME280;59274;49.874;9.154;2023-01-09T14:28:30;99134.56;;;7.28;97.23
71465;BME280;59274;49.874;9.154;2023-01-09T14:36:16;99130.25;;;7.16;99.55
71465;BME280;59274;49.874;9.154;2023-01-09T14:38:47;99137.25;;;7.24;99.17
71465;BME280;59274;49.874;9.154;2023-01-09T14:44:26;99136.44;;;7.20;98.91
71465;BME280;59274;49.874;9.154;2023-01-09T14:46:53;99131.09;;;7.27;99.51
71465;BME280;59274;49.874;9.154;2023-01-09T14:49:42;99141.88;;;7.27;98.46
71465;BME280;59274;49.874;9.154;2023-01-09T14:52:22;99148.84;;;7.28;97.06
71465;BME280;59274;49.874;9.154;2023-01-09T14:54:50;99153.47;;;7.28;96.56